CYKY

Kindersley Airport

Kindersley, Saskatchewan, Canada
METAR CYKY 182000Z 29014G19KT 15SM FEW140 SCT260 M01/M08 A2964 RMK AC1CI2 SLP069
Observed Flight Rules
Dec-18 @ 20:00 UTC (26 minutes ago) Visual Flight Rules
Wind Visibility Clouds
290° at 14 knots
 Gusting to 19 knots
15 miles
  • Few at 14,000' AGL
  • Scattered at 26,000' AGL
Temperatures Readings
Current -1°C / 30°F
Dewpoint -8°C / 18°F
Humidity 59%
Altimeter 29.64" Hg
Pressure 1006.9 hPa
Elevation 694
METAR CYKY 182000Z 29014G19KT 15SM FEW140 SCT260 M01/M08 A2964 RMK AC1CI2 SLP069
Observed Flight Rules
Dec-18 @ 20:00 UTC
(26 minutes ago)
VFR
Wind Visibility
290° at 14 knots
 Gusting to 19 knots
15 miles
Clouds
  • Few at 14,000' AGL
  • Scattered at 26,000' AGL
Temperature Dewpoint
-1°C / 30°F -8°C / 18°F
Humidity Altimeter Pressure
59% 29.64" Hg 1006.9 hPa